sensor_id;sensor_type;location;lat;lon;timestamp;temperature;humidity
8338;DHT22;4206;48.634;9.516;2023-08-06T02:16:14;13.10;99.90
8338;DHT22;4206;48.634;9.516;2023-08-06T02:18:41;13.10;99.90
8338;DHT22;4206;48.634;9.516;2023-08-06T02:21:09;13.00;99.90
8338;DHT22;4206;48.634;9.516;2023-08-06T02:23:36;12.90;99.90
8338;DHT22;4206;48.634;9.516;2023-08-06T02:26:04;12.90;99.90
8338;DHT22;4206;48.634;9.516;2023-08-06T02:28:31;13.00;99.90
8338;DHT22;4206;48.634;9.516;2023-08-06T02:30:59;12.90;99.90
8338;DHT22;4206;48.634;9.516;2023-08-06T02:33:26;12.70;99.90
8338;DHT22;4206;48.634;9.516;2023-08-06T02:35:59;12.80;99.90
8338;DHT22;4206;48.634;9.516;2023-08-06T02:38:27;12.70;99.90
8338;DHT22;4206;48.634;9.516;2023-08-06T02:40:54;12.70;99.90
8338;DHT22;4206;48.634;9.516;2023-08-06T02:43:21;12.70;99.90
8338;DHT22;4206;48.634;9.516;2023-08-06T02:45:48;12.70;99.90
8338;DHT22;4206;48.634;9.516;2023-08-06T02:48:15;12.60;99.90
8338;DHT22;4206;48.634;9.516;2023-08-06T02:53:09;12.50;99.90
8338;DHT22;4206;48.634;9.516;2023-08-06T02:55:36;12.50;99.90
8338;DHT22;4206;48.634;9.516;2023-08-06T02:58:03;12.50;99.90
8338;DHT22;4206;48.634;9.516;2023-08-06T03:00:30;12.70;99.90
8338;DHT22;4206;48.634;9.516;2023-08-06T03:02:57;12.40;99.90
8338;DHT22;4206;48.634;9.516;2023-08-06T03:05:24;12.40;99.90
8338;DHT22;4206;48.634;9.516;2023-08-06T03:07:51;12.20;99.90
8338;DHT22;4206;48.634;9.516;2023-08-06T03:10:17;12.30;99.90
8338;DHT22;4206;48.634;9.516;2023-08-06T03:12:44;12.30;99.90
8338;DHT22;4206;48.634;9.516;2023-08-06T03:15:11;12.30;99.90
8338;DHT22;4206;48.634;9.516;2023-08-06T03:20:07;12.20;99.90
8338;DHT22;4206;48.634;9.516;2023-08-06T03:22:33;12.20;99.90
8338;DHT22;4206;48.634;9.516;2023-08-06T03:25:00;12.10;99.90
8338;DHT22;4206;48.634;9.516;2023-08-06T03:27:27;12.20;99.90
8338;DHT22;4206;48.634;9.516;2023-08-06T03:29:54;12.20;99.90
8338;DHT22;4206;48.634;9.516;2023-08-06T03:32:21;12.30;99.90
8338;DHT22;4206;48.634;9.516;2023-08-06T03:34:48;12.20;99.90
8338;DHT22;4206;48.634;9.516;2023-08-06T03:37:15;12.20;99.90
8338;DHT22;4206;48.634;9.516;2023-08-06T03:39:42;12.50;99.90
8338;DHT22;4206;48.634;9.516;2023-08-06T03:42:08;12.20;99.90
8338;DHT22;4206;48.634;9.516;2023-08-06T03:44:35;12.20;99.90
8338;DHT22;4206;48.634;9.516;2023-08-06T03:47:02;12.30;99.90
8338;DHT22;4206;48.634;9.516;2023-08-06T03:49:29;12.30;99.90
8338;DHT22;4206;48.634;9.516;2023-08-06T03:51:56;12.20;99.90
8338;DHT22;4206;48.634;9.516;2023-08-06T03:54:23;12.30;99.90
8338;DHT22;4206;48.634;9.516;2023-08-06T03:56:50;12.30;99.90
8338;DHT22;4206;48.634;9.516;2023-08-06T03:59:17;12.30;99.90
8338;DHT22;4206;48.634;9.516;2023-08-06T04:01:43;12.40;99.90
8338;DHT22;4206;48.634;9.516;2023-08-06T04:06:37;12.50;99.90
8338;DHT22;4206;48.634;9.516;2023-08-06T04:09:04;12.60;99.90
8338;DHT22;4206;48.634;9.516;2023-08-06T04:11:31;12.60;99.90
8338;DHT22;4206;48.634;9.516;2023-08-06T04:13:58;12.70;99.90
8338;DHT22;4206;48.634;9.516;2023-08-06T04:16:25;12.70;99.90
8338;DHT22;4206;48.634;9.516;2023-08-06T04:18:54;12.90;99.90
8338;DHT22;4206;48.634;9.516;2023-08-06T04:21:22;12.90;99.90
8338;DHT22;4206;48.634;9.516;2023-08-06T04:23:49;13.00;99.90
8338;DHT22;4206;48.634;9.516;2023-08-06T04:26:16;13.10;99.90
8338;DHT22;4206;48.634;9.516;2023-08-06T04:28:42;13.20;99.90
8338;DHT22;4206;48.634;9.516;2023-08-06T04:31:09;13.50;99.90
8338;DHT22;4206;48.634;9.516;2023-08-06T04:33:36;13.70;99.90
8338;DHT22;4206;48.634;9.516;2023-08-06T04:36:03;14.10;99.90
8338;DHT22;4206;48.634;9.516;2023-08-06T04:38:31;14.20;99.90
8338;DHT22;4206;48.634;9.516;2023-08-06T04:40:58;14.20;99.90
8338;DHT22;4206;48.634;9.516;2023-08-06T04:43:25;14.40;99.90
8338;DHT22;4206;48.634;9.516;2023-08-06T04:45:54;14.40;99.90
8338;DHT22;4206;48.634;9.516;2023-08-06T04:48:22;14.40;99.90
8338;DHT22;4206;48.634;9.516;2023-08-06T04:50:50;14.60;99.90
8338;DHT22;4206;48.634;9.516;2023-08-06T04:53:17;14.50;99.90
8338;DHT22;4206;48.634;9.516;2023-08-06T04:55:44;14.50;99.90
8338;DHT22;4206;48.634;9.516;2023-08-06T04:58:11;14.40;99.90
8338;DHT22;4206;48.634;9.516;2023-08-06T05:00:37;14.40;99.90
8338;DHT22;4206;48.634;9.516;2023-08-06T05:03:05;14.30;99.90
8338;DHT22;4206;48.634;9.516;2023-08-06T05:05:33;14.30;99.90
8338;DHT22;4206;48.634;9.516;2023-08-06T05:07:59;14.20;99.90
8338;DHT22;4206;48.634;9.516;2023-08-06T05:10:27;14.30;99.90
8338;DHT22;4206;48.634;9.516;2023-08-06T05:12:54;14.10;99.90
8338;DHT22;4206;48.634;9.516;2023-08-06T05:15:21;14.20;99.90
8338;DHT22;4206;48.634;9.516;2023-08-06T05:17:48;14.30;99.90
8338;DHT22;4206;48.634;9.516;2023-08-06T05:20:15;14.20;99.90
8338;DHT22;4206;48.634;9.516;2023-08-06T05:22:43;14.20;99.90
8338;DHT22;4206;48.634;9.516;2023-08-06T05:25:13;14.20;99.90
8338;DHT22;4206;48.634;9.516;2023-08-06T05:27:41;14.20;99.90
8338;DHT22;4206;48.634;9.516;2023-08-06T05:30:09;14.50;99.90
8338;DHT22;4206;48.634;9.516;2023-08-06T05:32:36;14.40;99.90
8338;DHT22;4206;48.634;9.516;2023-08-06T05:35:03;14.40;99.90
8338;DHT22;4206;48.634;9.516;2023-08-06T05:37:30;14.40;99.90
8338;DHT22;4206;48.634;9.516;2023-08-06T05:39:57;14.40;99.90
8338;DHT22;4206;48.634;9.516;2023-08-06T05:42:24;14.40;99.90
8338;DHT22;4206;48.634;9.516;2023-08-06T05:44:51;14.40;99.90
8338;DHT22;4206;48.634;9.516;2023-08-06T05:47:18;14.50;99.90
8338;DHT22;4206;48.634;9.516;2023-08-06T05:49:46;14.60;99.90
8338;DHT22;4206;48.634;9.516;2023-08-06T05:52:13;14.70;99.90
8338;DHT22;4206;48.634;9.516;2023-08-06T05:54:39;14.70;99.90
8338;DHT22;4206;48.634;9.516;2023-08-06T05:57:07;14.70;99.90
8338;DHT22;4206;48.634;9.516;2023-08-06T05:59:34;15.00;99.90
8338;DHT22;4206;48.634;9.516;2023-08-06T06:02:01;14.90;99.90
8338;DHT22;4206;48.634;9.516;2023-08-06T06:04:28;15.20;99.90
8338;DHT22;4206;48.634;9.516;2023-08-06T06:06:55;15.40;99.90
8338;DHT22;4206;48.634;9.516;2023-08-06T06:09:22;15.60;99.90
8338;DHT22;4206;48.634;9.516;2023-08-06T06:11:49;15.70;99.90
8338;DHT22;4206;48.634;9.516;2023-08-06T06:14:18;15.90;99.90
8338;DHT22;4206;48.634;9.516;2023-08-06T06:16:45;15.80;99.90
8338;DHT22;4206;48.634;9.516;2023-08-06T06:19:12;15.60;99.90
8338;DHT22;4206;48.634;9.516;2023-08-06T06:21:42;15.50;99.90
8338;DHT22;4206;48.634;9.516;2023-08-06T06:24:09;15.50;99.90
8338;DHT22;4206;48.634;9.516;2023-08-06T06:26:36;15.40;99.90
8338;DHT22;4206;48.634;9.516;2023-08-06T06:29:02;15.40;99.90
8338;DHT22;4206;48.634;9.516;2023-08-06T06:31:32;15.40;99.90
8338;DHT22;4206;48.634;9.516;2023-08-06T06:34:00;15.30;99.90
8338;DHT22;4206;48.634;9.516;2023-08-06T06:36:27;15.20;99.90
8338;DHT22;4206;48.634;9.516;2023-08-06T06:38:54;15.40;99.90
8338;DHT22;4206;48.634;9.516;2023-08-06T06:41:21;15.20;99.90
8338;DHT22;4206;48.634;9.516;2023-08-06T06:43:47;15.10;99.90
8338;DHT22;4206;48.634;9.516;2023-08-06T06:46:14;15.00;99.90
8338;DHT22;4206;48.634;9.516;2023-08-06T06:48:41;15.10;99.90
8338;DHT22;4206;48.634;9.516;2023-08-06T06:51:08;15.10;99.90
8338;DHT22;4206;48.634;9.516;2023-08-06T06:53:35;15.00;99.90
8338;DHT22;4206;48.634;9.516;2023-08-06T06:58:31;15.00;99.90
8338;DHT22;4206;48.634;9.516;2023-08-06T07:00:58;14.40;99.90
8338;DHT22;4206;48.634;9.516;2023-08-06T07:03:25;14.90;99.90
8338;DHT22;4206;48.634;9.516;2023-08-06T07:05:57;14.80;99.90
8338;DHT22;4206;48.634;9.516;2023-08-06T07:08:25;15.10;99.90
8338;DHT22;4206;48.634;9.516;2023-08-06T07:11:01;15.30;99.90
8338;DHT22;4206;48.634;9.516;2023-08-06T07:13:28;15.40;99.90
8338;DHT22;4206;48.634;9.516;2023-08-06T07:15:56;15.50;99.90
8338;DHT22;4206;48.634;9.516;2023-08-06T07:18:23;15.40;99.90
8338;DHT22;4206;48.634;9.516;2023-08-06T07:20:51;15.50;99.90
8338;DHT22;4206;48.634;9.516;2023-08-06T07:23:22;15.40;99.90
8338;DHT22;4206;48.634;9.516;2023-08-06T07:25:50;15.40;99.90
8338;DHT22;4206;48.634;9.516;2023-08-06T07:28:17;15.20;99.90
8338;DHT22;4206;48.634;9.516;2023-08-06T07:30:45;15.30;99.90
8338;DHT22;4206;48.634;9.516;2023-08-06T07:33:12;15.60;99.90
8338;DHT22;4206;48.634;9.516;2023-08-06T07:35:39;15.40;99.90
8338;DHT22;4206;48.634;9.516;2023-08-06T07:38:06;15.60;99.90
8338;DHT22;4206;48.634;9.516;2023-08-06T07:45:38;15.80;99.90
8338;DHT22;4206;48.634;9.516;2023-08-06T07:48:05;15.40;99.90
8338;DHT22;4206;48.634;9.516;2023-08-06T07:50:32;15.30;99.90
8338;DHT22;4206;48.634;9.516;2023-08-06T07:52:59;15.20;99.90
8338;DHT22;4206;48.634;9.516;2023-08-06T07:55:26;15.10;99.90
8338;DHT22;4206;48.634;9.516;2023-08-06T07:57:53;14.70;99.90
8338;DHT22;4206;48.634;9.516;2023-08-06T08:00:21;14.60;99.90
8338;DHT22;4206;48.634;9.516;2023-08-06T08:05:15;14.60;99.90
8338;DHT22;4206;48.634;9.516;2023-08-06T08:07:42;14.50;99.90
8338;DHT22;4206;48.634;9.516;2023-08-06T08:10:10;14.70;99.90
8338;DHT22;4206;48.634;9.516;2023-08-06T08:12:38;14.50;99.90
8338;DHT22;4206;48.634;9.516;2023-08-06T08:15:05;14.50;99.90
8338;DHT22;4206;48.634;9.516;2023-08-06T08:17:32;14.80;99.90
8338;DHT22;4206;48.634;9.516;2023-08-06T08:20:01;15.00;99.90
8338;DHT22;4206;48.634;9.516;2023-08-06T08:22:28;15.30;99.90
8338;DHT22;4206;48.634;9.516;2023-08-06T08:27:22;15.50;99.90
8338;DHT22;4206;48.634;9.516;2023-08-06T08:29:49;15.70;99.90
8338;DHT22;4206;48.634;9.516;2023-08-06T08:32:16;15.90;99.90
8338;DHT22;4206;48.634;9.516;2023-08-06T09:06:52;15.60;99.90
8338;DHT22;4206;48.634;9.516;2023-08-06T09:09:26;15.20;99.90
8338;DHT22;4206;48.634;9.516;2023-08-06T09:11:56;15.10;99.90
8338;DHT22;4206;48.634;9.516;2023-08-06T09:14:26;15.10;99.90
8338;DHT22;4206;48.634;9.516;2023-08-06T09:16:54;15.40;99.90
8338;DHT22;4206;48.634;9.516;2023-08-06T09:19:21;15.50;99.90
8338;DHT22;4206;48.634;9.516;2023-08-06T09:21:51;15.60;99.90
8338;DHT22;4206;48.634;9.516;2023-08-06T09:24:18;15.50;99.90
8338;DHT22;4206;48.634;9.516;2023-08-06T09:26:45;15.30;99.90
8338;DHT22;4206;48.634;9.516;2023-08-06T09:29:12;15.30;99.90
8338;DHT22;4206;48.634;9.516;2023-08-06T09:34:11;15.40;99.90
8338;DHT22;4206;48.634;9.516;2023-08-06T09:36:42;15.60;99.90
8338;DHT22;4206;48.634;9.516;2023-08-06T09:39:15;16.00;99.90
8338;DHT22;4206;48.634;9.516;2023-08-06T09:51:42;17.40;99.90
8338;DHT22;4206;48.634;9.516;2023-08-06T10:42:21;15.40;99.90
8338;DHT22;4206;48.634;9.516;2023-08-06T10:45:11;15.10;99.90
8338;DHT22;4206;48.634;9.516;2023-08-06T10:47:39;14.90;99.90
8338;DHT22;4206;48.634;9.516;2023-08-06T10:50:12;14.90;99.90
8338;DHT22;4206;48.634;9.516;2023-08-06T10:52:44;15.00;99.90
8338;DHT22;4206;48.634;9.516;2023-08-06T10:55:12;14.90;99.90
8338;DHT22;4206;48.634;9.516;2023-08-06T10:57:39;15.10;99.90
8338;DHT22;4206;48.634;9.516;2023-08-06T11:00:09;15.20;99.90
8338;DHT22;4206;48.634;9.516;2023-08-06T11:02:47;15.40;99.90
8338;DHT22;4206;48.634;9.516;2023-08-06T11:05:15;15.60;99.90
8338;DHT22;4206;48.634;9.516;2023-08-06T11:07:43;15.90;99.90
8338;DHT22;4206;48.634;9.516;2023-08-06T11:10:12;15.80;99.90
8338;DHT22;4206;48.634;9.516;2023-08-06T11:12:40;15.60;99.90
8338;DHT22;4206;48.634;9.516;2023-08-06T11:15:07;15.50;99.90
8338;DHT22;4206;48.634;9.516;2023-08-06T11:17:35;15.40;99.90
8338;DHT22;4206;48.634;9.516;2023-08-06T11:20:04;15.40;99.90
8338;DHT22;4206;48.634;9.516;2023-08-06T11:22:31;15.40;99.90
8338;DHT22;4206;48.634;9.516;2023-08-06T11:24:58;15.30;99.90
8338;DHT22;4206;48.634;9.516;2023-08-06T11:27:27;15.40;99.90
8338;DHT22;4206;48.634;9.516;2023-08-06T11:29:57;15.30;99.90
8338;DHT22;4206;48.634;9.516;2023-08-06T11:32:24;15.50;99.90
8338;DHT22;4206;48.634;9.516;2023-08-06T11:34:53;15.60;99.90
8338;DHT22;4206;48.634;9.516;2023-08-06T11:37:22;15.70;99.90
8338;DHT22;4206;48.634;9.516;2023-08-06T11:39:51;15.10;99.90
8338;DHT22;4206;48.634;9.516;2023-08-06T11:42:18;15.60;99.90
8338;DHT22;4206;48.634;9.516;2023-08-06T11:44:45;15.50;99.90
8338;DHT22;4206;48.634;9.516;2023-08-06T11:47:17;15.50;99.90
8338;DHT22;4206;48.634;9.516;2023-08-06T11:49:47;15.40;99.90
8338;DHT22;4206;48.634;9.516;2023-08-06T11:54:42;16.10;99.90
8338;DHT22;4206;48.634;9.516;2023-08-06T11:57:11;15.20;99.90
8338;DHT22;4206;48.634;9.516;2023-08-06T11:59:39;15.20;99.90
8338;DHT22;4206;48.634;9.516;2023-08-06T12:02:08;15.30;99.90
8338;DHT22;4206;48.634;9.516;2023-08-06T12:05:00;15.60;99.90
8338;DHT22;4206;48.634;9.516;2023-08-06T12:07:29;15.70;99.90
8338;DHT22;4206;48.634;9.516;2023-08-06T12:09:57;15.80;99.90
8338;DHT22;4206;48.634;9.516;2023-08-06T12:12:24;15.70;99.90
8338;DHT22;4206;48.634;9.516;2023-08-06T12:14:51;15.70;99.90
8338;DHT22;4206;48.634;9.516;2023-08-06T12:17:18;15.80;99.90
8338;DHT22;4206;48.634;9.516;2023-08-06T12:19:46;15.70;99.90
8338;DHT22;4206;48.634;9.516;2023-08-06T12:22:14;15.40;99.90
8338;DHT22;4206;48.634;9.516;2023-08-06T12:24:42;15.40;99.90
8338;DHT22;4206;48.634;9.516;2023-08-06T12:27:10;15.40;99.90
8338;DHT22;4206;48.634;9.516;2023-08-06T12:29:41;15.40;99.90
8338;DHT22;4206;48.634;9.516;2023-08-06T12:32:10;15.40;99.90
8338;DHT22;4206;48.634;9.516;2023-08-06T12:34:39;15.10;99.90
8338;DHT22;4206;48.634;9.516;2023-08-06T12:37:19;15.30;99.90
8338;DHT22;4206;48.634;9.516;2023-08-06T12:39:46;15.30;99.90
8338;DHT22;4206;48.634;9.516;2023-08-06T12:42:13;15.30;99.90
8338;DHT22;4206;48.634;9.516;2023-08-06T12:44:40;15.20;99.90
8338;DHT22;4206;48.634;9.516;2023-08-06T12:47:08;15.30;99.90
8338;DHT22;4206;48.634;9.516;2023-08-06T12:49:35;15.20;99.90
8338;DHT22;4206;48.634;9.516;2023-08-06T12:52:02;15.10;99.90
8338;DHT22;4206;48.634;9.516;2023-08-06T12:54:31;15.20;99.90
8338;DHT22;4206;48.634;9.516;2023-08-06T12:57:04;15.20;99.90
8338;DHT22;4206;48.634;9.516;2023-08-06T12:59:31;14.20;99.90
8338;DHT22;4206;48.634;9.516;2023-08-06T13:02:00;15.70;99.90
8338;DHT22;4206;48.634;9.516;2023-08-06T13:04:27;15.30;99.90
8338;DHT22;4206;48.634;9.516;2023-08-06T13:06:55;15.40;99.90
8338;DHT22;4206;48.634;9.516;2023-08-06T13:09:22;15.30;99.90
8338;DHT22;4206;48.634;9.516;2023-08-06T13:11:48;15.50;99.90
8338;DHT22;4206;48.634;9.516;2023-08-06T13:14:17;15.50;99.90
8338;DHT22;4206;48.634;9.516;2023-08-06T13:16:44;15.30;99.90
8338;DHT22;4206;48.634;9.516;2023-08-06T13:19:12;14.60;99.90
8338;DHT22;4206;48.634;9.516;2023-08-06T13:24:08;15.30;99.90
8338;DHT22;4206;48.634;9.516;2023-08-06T13:26:35;15.30;99.90
8338;DHT22;4206;48.634;9.516;2023-08-06T13:29:02;15.30;99.90
8338;DHT22;4206;48.634;9.516;2023-08-06T13:31:29;15.20;99.90
8338;DHT22;4206;48.634;9.516;2023-08-06T13:33:57;15.10;99.90
8338;DHT22;4206;48.634;9.516;2023-08-06T13:36:26;15.10;99.90
8338;DHT22;4206;48.634;9.516;2023-08-06T13:38:54;15.10;99.90
8338;DHT22;4206;48.634;9.516;2023-08-06T13:41:21;15.10;99.90
8338;DHT22;4206;48.634;9.516;2023-08-06T13:43:48;15.20;99.90
8338;DHT22;4206;48.634;9.516;2023-08-06T13:46:17;15.30;99.90
8338;DHT22;4206;48.634;9.516;2023-08-06T13:48:47;15.40;99.90
8338;DHT22;4206;48.634;9.516;2023-08-06T13:51:18;15.60;99.90
8338;DHT22;4206;48.634;9.516;2023-08-06T13:53:45;15.90;99.90
8338;DHT22;4206;48.634;9.516;2023-08-06T13:56:13;15.90;99.90
8338;DHT22;4206;48.634;9.516;2023-08-06T13:58:44;15.90;99.90
8338;DHT22;4206;48.634;9.516;2023-08-06T14:01:11;16.00;99.90
8338;DHT22;4206;48.634;9.516;2023-08-06T14:03:38;16.00;99.90
8338;DHT22;4206;48.634;9.516;2023-08-06T14:06:05;16.00;99.90
8338;DHT22;4206;48.634;9.516;2023-08-06T14:08:32;16.10;99.90
8338;DHT22;4206;48.634;9.516;2023-08-06T14:10:59;16.20;99.90
8338;DHT22;4206;48.634;9.516;2023-08-06T14:13:26;16.10;99.90
8338;DHT22;4206;48.634;9.516;2023-08-06T14:15:52;16.10;99.90
8338;DHT22;4206;48.634;9.516;2023-08-06T14:18:20;16.20;99.90
8338;DHT22;4206;48.634;9.516;2023-08-06T14:20:47;15.40;99.90
8338;DHT22;4206;48.634;9.516;2023-08-06T14:23:13;16.00;99.90
8338;DHT22;4206;48.634;9.516;2023-08-06T14:25:40;16.00;99.90
8338;DHT22;4206;48.634;9.516;2023-08-06T14:28:08;16.00;99.90
8338;DHT22;4206;48.634;9.516;2023-08-06T14:30:35;15.90;99.90
8338;DHT22;4206;48.634;9.516;2023-08-06T14:33:03;15.80;99.90
8338;DHT22;4206;48.634;9.516;2023-08-06T14:35:49;15.90;99.90
8338;DHT22;4206;48.634;9.516;2023-08-06T14:38:17;16.00;99.90
8338;DHT22;4206;48.634;9.516;2023-08-06T14:40:44;16.00;99.90
8338;DHT22;4206;48.634;9.516;2023-08-06T14:43:11;15.90;99.90
8338;DHT22;4206;48.634;9.516;2023-08-06T14:45:41;15.70;99.90
8338;DHT22;4206;48.634;9.516;2023-08-06T14:48:08;15.50;99.90
8338;DHT22;4206;48.634;9.516;2023-08-06T14:50:35;15.40;99.90
8338;DHT22;4206;48.634;9.516;2023-08-06T14:53:02;15.20;99.90
8338;DHT22;4206;48.634;9.516;2023-08-06T14:58:00;15.20;99.90
8338;DHT22;4206;48.634;9.516;2023-08-06T15:00:28;15.30;99.90
8338;DHT22;4206;48.634;9.516;2023-08-06T15:02:55;15.20;99.90
8338;DHT22;4206;48.634;9.516;2023-08-06T15:05:22;15.40;99.90
8338;DHT22;4206;48.634;9.516;2023-08-06T15:07:49;15.20;99.90
8338;DHT22;4206;48.634;9.516;2023-08-06T15:10:16;15.10;99.90
8338;DHT22;4206;48.634;9.516;2023-08-06T15:12:52;14.70;99.90
8338;DHT22;4206;48.634;9.516;2023-08-06T15:15:19;14.50;99.90
8338;DHT22;4206;48.634;9.516;2023-08-06T15:52:09;15.00;99.90
8338;DHT22;4206;48.634;9.516;2023-08-06T15:54:36;14.30;99.90
8338;DHT22;4206;48.634;9.516;2023-08-06T15:57:03;14.80;99.90
8338;DHT22;4206;48.634;9.516;2023-08-06T15:59:31;14.90;99.90
8338;DHT22;4206;48.634;9.516;2023-08-06T16:02:00;14.80;99.90
8338;DHT22;4206;48.634;9.516;2023-08-06T16:04:30;14.70;99.90
8338;DHT22;4206;48.634;9.516;2023-08-06T16:06:58;14.80;99.90
8338;DHT22;4206;48.634;9.516;2023-08-06T16:09:25;14.80;99.90
8338;DHT22;4206;48.634;9.516;2023-08-06T16:11:53;14.90;99.90
8338;DHT22;4206;48.634;9.516;2023-08-06T16:16:48;14.90;99.90
8338;DHT22;4206;48.634;9.516;2023-08-06T16:19:15;15.00;99.90
8338;DHT22;4206;48.634;9.516;2023-08-06T16:21:42;15.10;99.90
8338;DHT22;4206;48.634;9.516;2023-08-06T16:24:09;15.00;99.90
8338;DHT22;4206;48.634;9.516;2023-08-06T16:26:36;15.10;99.90
8338;DHT22;4206;48.634;9.516;2023-08-06T16:29:03;15.30;99.90
8338;DHT22;4206;48.634;9.516;2023-08-06T16:31:30;15.30;99.90
8338;DHT22;4206;48.634;9.516;2023-08-06T16:33:57;15.30;99.90
8338;DHT22;4206;48.634;9.516;2023-08-06T16:36:24;15.20;99.90
8338;DHT22;4206;48.634;9.516;2023-08-06T16:38:52;15.20;99.90
8338;DHT22;4206;48.634;9.516;2023-08-06T16:41:19;15.10;99.90
8338;DHT22;4206;48.634;9.516;2023-08-06T16:43:46;15.00;99.90
8338;DHT22;4206;48.634;9.516;2023-08-06T16:46:13;14.70;99.90
8338;DHT22;4206;48.634;9.516;2023-08-06T16:48:40;15.00;99.90
8338;DHT22;4206;48.634;9.516;2023-08-06T16:51:07;14.90;99.90
8338;DHT22;4206;48.634;9.516;2023-08-06T16:53:34;14.80;99.90
8338;DHT22;4206;48.634;9.516;2023-08-06T16:56:01;14.90;99.90
8338;DHT22;4206;48.634;9.516;2023-08-06T16:58:28;14.70;99.90
8338;DHT22;4206;48.634;9.516;2023-08-06T17:00:55;14.80;99.90
8338;DHT22;4206;48.634;9.516;2023-08-06T17:05:50;14.70;99.90
8338;DHT22;4206;48.634;9.516;2023-08-06T17:08:17;14.70;99.90
8338;DHT22;4206;48.634;9.516;2023-08-06T17:10:44;14.60;99.90
8338;DHT22;4206;48.634;9.516;2023-08-06T17:13:11;14.60;99.90
8338;DHT22;4206;48.634;9.516;2023-08-06T17:15:47;14.60;99.90
8338;DHT22;4206;48.634;9.516;2023-08-06T17:18:15;14.50;99.90
8338;DHT22;4206;48.634;9.516;2023-08-06T17:20:44;14.60;99.90
8338;DHT22;4206;48.634;9.516;2023-08-06T17:25:41;14.50;99.90
8338;DHT22;4206;48.634;9.516;2023-08-06T17:28:08;14.50;99.90
8338;DHT22;4206;48.634;9.516;2023-08-06T17:30:35;14.50;99.90
8338;DHT22;4206;48.634;9.516;2023-08-06T17:33:02;14.40;99.90
8338;DHT22;4206;48.634;9.516;2023-08-06T17:35:29;14.50;99.90
8338;DHT22;4206;48.634;9.516;2023-08-06T17:37:59;14.50;99.90
8338;DHT22;4206;48.634;9.516;2023-08-06T17:40:27;14.40;99.90
8338;DHT22;4206;48.634;9.516;2023-08-06T17:42:55;14.30;99.90
8338;DHT22;4206;48.634;9.516;2023-08-06T17:45:22;14.40;99.90
8338;DHT22;4206;48.634;9.516;2023-08-06T17:47:51;14.10;99.90
8338;DHT22;4206;48.634;9.516;2023-08-06T17:50:18;14.20;99.90
8338;DHT22;4206;48.634;9.516;2023-08-06T17:52:45;14.20;99.90
8338;DHT22;4206;48.634;9.516;2023-08-06T17:55:13;14.10;99.90
8338;DHT22;4206;48.634;9.516;2023-08-06T17:57:40;14.10;99.90
8338;DHT22;4206;48.634;9.516;2023-08-06T18:00:08;14.10;99.90
8338;DHT22;4206;48.634;9.516;2023-08-06T18:02:35;13.90;99.90
8338;DHT22;4206;48.634;9.516;2023-08-06T18:05:02;13.90;99.90
8338;DHT22;4206;48.634;9.516;2023-08-06T18:07:29;13.80;99.90
8338;DHT22;4206;48.634;9.516;2023-08-06T18:09:56;14.00;99.90
8338;DHT22;4206;48.634;9.516;2023-08-06T18:12:22;13.80;99.90
8338;DHT22;4206;48.634;9.516;2023-08-06T18:17:17;13.70;99.90
8338;DHT22;4206;48.634;9.516;2023-08-06T18:19:44;13.60;99.90
8338;DHT22;4206;48.634;9.516;2023-08-06T21:04:36;13.00;99.90
8338;DHT22;4206;48.634;9.516;2023-08-06T21:07:03;13.00;99.90
8338;DHT22;4206;48.634;9.516;2023-08-06T21:09:30;12.90;99.90
8338;DHT22;4206;48.634;9.516;2023-08-06T21:11:57;12.70;99.90
8338;DHT22;4206;48.634;9.516;2023-08-06T21:14:23;12.60;99.90
8338;DHT22;4206;48.634;9.516;2023-08-06T21:16:50;12.50;99.90
8338;DHT22;4206;48.634;9.516;2023-08-06T21:19:17;12.30;99.90
8338;DHT22;4206;48.634;9.516;2023-08-06T21:21:44;12.20;99.90
8338;DHT22;4206;48.634;9.516;2023-08-06T21:24:12;12.10;99.90
8338;DHT22;4206;48.634;9.516;2023-08-06T21:26:40;12.00;99.90
8338;DHT22;4206;48.634;9.516;2023-08-06T21:29:07;11.90;99.90
8338;DHT22;4206;48.634;9.516;2023-08-06T21:31:35;11.80;99.90
8338;DHT22;4206;48.634;9.516;2023-08-06T21:34:02;11.80;99.90
8338;DHT22;4206;48.634;9.516;2023-08-06T21:36:29;11.70;99.90
8338;DHT22;4206;48.634;9.516;2023-08-06T21:38:58;11.70;99.90
8338;DHT22;4206;48.634;9.516;2023-08-06T21:41:25;11.60;99.90
8338;DHT22;4206;48.634;9.516;2023-08-06T21:43:51;11.80;99.90
8338;DHT22;4206;48.634;9.516;2023-08-06T21:46:19;11.50;99.90
8338;DHT22;4206;48.634;9.516;2023-08-06T21:48:48;11.50;99.90
8338;DHT22;4206;48.634;9.516;2023-08-06T21:51:16;11.50;99.90
8338;DHT22;4206;48.634;9.516;2023-08-06T21:53:45;11.40;99.90
8338;DHT22;4206;48.634;9.516;2023-08-06T21:56:13;11.50;99.90
8338;DHT22;4206;48.634;9.516;2023-08-06T21:58:42;11.50;99.90
8338;DHT22;4206;48.634;9.516;2023-08-06T22:01:10;11.40;99.90
8338;DHT22;4206;48.634;9.516;2023-08-06T22:03:39;11.40;99.90
8338;DHT22;4206;48.634;9.516;2023-08-06T22:06:07;11.30;99.90
8338;DHT22;4206;48.634;9.516;2023-08-06T22:08:34;11.30;99.90
8338;DHT22;4206;48.634;9.516;2023-08-06T22:11:01;11.40;99.90
8338;DHT22;4206;48.634;9.516;2023-08-06T22:13:30;11.30;99.90
8338;DHT22;4206;48.634;9.516;2023-08-06T22:15:57;11.30;99.90
8338;DHT22;4206;48.634;9.516;2023-08-06T22:18:24;11.30;99.90
8338;DHT22;4206;48.634;9.516;2023-08-06T22:20:55;11.30;99.90
8338;DHT22;4206;48.634;9.516;2023-08-06T22:23:23;11.30;99.90
8338;DHT22;4206;48.634;9.516;2023-08-06T22:25:51;11.30;99.90
8338;DHT22;4206;48.634;9.516;2023-08-06T22:28:20;11.30;99.90
8338;DHT22;4206;48.634;9.516;2023-08-06T22:30:47;11.30;99.90
8338;DHT22;4206;48.634;9.516;2023-08-06T22:33:14;11.30;99.90
8338;DHT22;4206;48.634;9.516;2023-08-06T22:35:41;11.30;99.90
8338;DHT22;4206;48.634;9.516;2023-08-06T22:38:08;11.30;99.90
8338;DHT22;4206;48.634;9.516;2023-08-06T22:40:35;11.20;99.90
8338;DHT22;4206;48.634;9.516;2023-08-06T22:43:02;11.30;99.90
8338;DHT22;4206;48.634;9.516;2023-08-06T22:45:29;11.30;99.90
8338;DHT22;4206;48.634;9.516;2023-08-06T22:47:56;11.30;99.90
8338;DHT22;4206;48.634;9.516;2023-08-06T22:50:23;11.30;99.90
8338;DHT22;4206;48.634;9.516;2023-08-06T22:52:51;11.30;99.90
8338;DHT22;4206;48.634;9.516;2023-08-06T22:55:18;11.30;99.90
8338;DHT22;4206;48.634;9.516;2023-08-06T22:58:05;11.30;99.90
8338;DHT22;4206;48.634;9.516;2023-08-06T23:00:32;11.30;99.90
8338;DHT22;4206;48.634;9.516;2023-08-06T23:02:59;11.30;99.90
8338;DHT22;4206;48.634;9.516;2023-08-06T23:05:36;11.20;99.90
8338;DHT22;4206;48.634;9.516;2023-08-06T23:08:04;11.20;99.90
8338;DHT22;4206;48.634;9.516;2023-08-06T23:10:31;11.20;99.90
8338;DHT22;4206;48.634;9.516;2023-08-06T23:12:58;11.30;99.90
8338;DHT22;4206;48.634;9.516;2023-08-06T23:15:25;11.20;99.90
8338;DHT22;4206;48.634;9.516;2023-08-06T23:17:52;11.20;99.90
8338;DHT22;4206;48.634;9.516;2023-08-06T23:20:19;11.20;99.90
8338;DHT22;4206;48.634;9.516;2023-08-06T23:22:46;11.20;99.90
8338;DHT22;4206;48.634;9.516;2023-08-06T23:25:13;11.20;99.90
8338;DHT22;4206;48.634;9.516;2023-08-06T23:27:40;11.20;99.90
8338;DHT22;4206;48.634;9.516;2023-08-06T23:30:07;11.20;99.90
8338;DHT22;4206;48.634;9.516;2023-08-06T23:32:37;11.30;99.90
8338;DHT22;4206;48.634;9.516;2023-08-06T23:35:04;11.30;99.90
8338;DHT22;4206;48.634;9.516;2023-08-06T23:37:31;11.20;99.90
8338;DHT22;4206;48.634;9.516;2023-08-06T23:40:00;11.20;99.90
8338;DHT22;4206;48.634;9.516;2023-08-06T23:42:27;11.20;99.90
8338;DHT22;4206;48.634;9.516;2023-08-06T23:44:54;11.30;99.90
8338;DHT22;4206;48.634;9.516;2023-08-06T23:47:21;11.30;99.90